Time;durP1;ratioP1;P1;durP2;ratioP2;P2;SDS_P1;SDS_P2;PMS_P1;PMS_P2;Temp;Humidity;BMP_temperature;BMP_pressure;BME280_temperature;BME280_humidity;BME280_pressure;Samples;Min_cycle;Max_cycle;Signal;HPM_P1;HPM_P2
2021/12/12 00:02:45;;;;;;;15.73;7.70;;;18.60;55.70;;;;;;5071272;28;20596;-53
2021/12/12 00:05:18;;;;;;;12.95;7.90;;;18.60;56.10;;;;;;5071275;28;20195;-54
2021/12/12 00:07:51;;;;;;;11.82;7.45;;;18.60;56.10;;;;;;5086173;28;20265;-51
2021/12/12 00:10:25;;;;;;;11.45;7.93;;;18.70;56.20;;;;;;5090734;28;20281;-48
2021/12/12 00:12:59;;;;;;;12.63;7.68;;;18.70;56.30;;;;;;5090786;28;20280;-52
2021/12/12 00:15:32;;;;;;;12.07;7.82;;;18.80;56.50;;;;;;5090412;28;20279;-51
2021/12/12 00:18:03;;;;;;;15.75;8.07;;;18.80;56.40;;;;;;5087173;28;20283;-53
2021/12/12 00:20:34;;;;;;;11.57;7.97;;;18.90;56.50;;;;;;5090847;28;20285;-51
2021/12/12 00:23:08;;;;;;;12.07;8.05;;;18.90;56.40;;;;;;5071118;28;20194;-55
2021/12/12 00:25:43;;;;;;;11.63;7.60;;;18.90;56.40;;;;;;5070383;28;20241;-53
2021/12/12 00:28:15;;;;;;;9.98;7.07;;;19.00;56.40;;;;;;5070130;28;20245;-54
2021/12/12 00:30:46;;;;;;;12.77;6.88;;;19.00;56.40;;;;;;5070395;28;20714;-52
2021/12/12 00:33:18;;;;;;;8.18;6.63;;;19.10;56.30;;;;;;5070659;28;20230;-54
2021/12/12 00:35:49;;;;;;;12.85;7.00;;;19.10;56.30;;;;;;5069745;28;20230;-52
2021/12/12 00:38:33;;;;;;;12.95;7.50;;;19.20;56.40;;;;;;5090079;28;20241;-53
2021/12/12 00:41:12;;;;;;;11.85;6.97;;;19.20;56.30;;;;;;5090350;28;20217;-55
2021/12/12 00:43:45;;;;;;;8.55;6.55;;;19.20;56.30;;;;;;5090165;28;20271;-51
2021/12/12 00:46:17;;;;;;;9.75;6.55;;;19.30;56.30;;;;;;5090025;28;20229;-53
2021/12/12 00:48:50;;;;;;;10.20;6.85;;;19.30;56.60;;;;;;5089550;28;20297;-51
2021/12/12 00:51:30;;;;;;;8.38;6.30;;;19.30;56.70;;;;;;5089167;28;20190;-51
2021/12/12 00:54:02;;;;;;;9.80;6.75;;;19.40;56.80;;;;;;5089641;28;20201;-54
2021/12/12 00:56:33;;;;;;;9.40;6.57;;;19.40;56.70;;;;;;5088863;28;20202;-50
2021/12/12 00:59:04;;;;;;;7.45;6.13;;;19.50;56.80;;;;;;5089479;28;20306;-55
2021/12/12 01:01:37;;;;;;;8.27;6.45;;;19.50;56.70;;;;;;5069969;28;20195;-53
2021/12/12 01:04:13;;;;;;;10.10;6.70;;;19.50;56.70;;;;;;5069860;28;20190;-51
2021/12/12 01:06:44;;;;;;;8.50;6.18;;;19.50;56.60;;;;;;5075950;28;20250;-54
2021/12/12 01:09:21;;;;;;;10.50;6.13;;;19.60;56.50;;;;;;5089749;28;20194;-48
2021/12/12 01:11:54;;;;;;;7.10;6.25;;;19.60;56.30;;;;;;5089534;28;20204;-53
2021/12/12 01:14:27;;;;;;;7.63;6.05;;;19.60;56.30;;;;;;5090102;28;20202;-54
2021/12/12 01:17:01;;;;;;;9.10;5.85;;;19.70;56.20;;;;;;5090031;28;20190;-54
2021/12/12 01:19:37;;;;;;;7.75;6.15;;;19.70;56.20;;;;;;5086553;28;20277;-52
2021/12/12 01:22:10;;;;;;;10.32;6.47;;;19.70;56.20;;;;;;5081337;28;20273;-53
2021/12/12 01:24:48;;;;;;;8.68;6.13;;;19.70;56.10;;;;;;5069295;28;20304;-54
2021/12/12 01:27:19;;;;;;;8.43;5.38;;;19.70;56.70;;;;;;5068434;28;20746;-55
2021/12/12 01:29:51;;;;;;;7.40;5.72;;;19.70;56.10;;;;;;5069444;28;20278;-54
2021/12/12 01:32:26;;;;;;;8.18;5.72;;;19.70;56.10;;;;;;5080988;22;20179;-56
2021/12/12 01:34:58;;;;;;;8.65;5.88;;;19.70;56.30;;;;;;5049601;28;20223;-58
2021/12/12 01:37:39;;;;;;;8.40;5.53;;;19.80;56.50;;;;;;5048748;28;20222;-58
2021/12/12 01:40:16;;;;;;;9.55;6.40;;;19.80;56.60;;;;;;5049209;28;20234;-57
2021/12/12 01:42:51;;;;;;;7.43;4.88;;;19.80;56.50;;;;;;5049198;28;20631;-58
2021/12/12 01:45:24;;;;;;;8.80;5.22;;;19.80;56.40;;;;;;5049442;28;20340;-57
2021/12/12 01:47:57;;;;;;;8.18;5.40;;;19.90;56.40;;;;;;5048988;28;20251;-55
2021/12/12 01:50:33;;;;;;;6.97;5.25;;;19.90;56.30;;;;;;5049360;28;20291;-56
2021/12/12 01:53:05;;;;;;;7.70;4.90;;;19.90;56.20;;;;;;5048563;28;20235;-57
2021/12/12 01:55:41;;;;;;;6.32;4.97;;;20.00;56.20;;;;;;5049361;28;20242;-56
2021/12/12 01:58:15;;;;;;;6.80;4.75;;;19.90;56.20;;;;;;5049467;28;20250;-57
2021/12/12 02:00:48;;;;;;;8.40;5.13;;;19.90;56.00;;;;;;5048977;28;20306;-56
2021/12/12 02:03:21;;;;;;;9.30;5.05;;;20.00;56.00;;;;;;5048961;28;20294;-58
2021/12/12 02:05:53;;;;;;;6.60;5.05;;;20.00;56.00;;;;;;5048873;28;20196;-56
2021/12/12 02:08:25;;;;;;;7.70;4.70;;;20.00;55.90;;;;;;5035023;28;20323;-58
2021/12/12 02:11:01;;;;;;;8.15;4.72;;;20.00;55.80;;;;;;5012488;28;20251;-58
2021/12/12 02:13:38;;;;;;;6.43;4.35;;;20.00;55.70;;;;;;5013009;28;20298;-58
2021/12/12 02:16:09;;;;;;;7.35;4.72;;;20.00;55.70;;;;;;5013212;28;20653;-55
2021/12/12 02:18:45;;;;;;;7.90;4.88;;;20.10;55.80;;;;;;5013013;28;20252;-49
2021/12/12 02:21:23;;;;;;;7.15;4.65;;;20.10;55.90;;;;;;5012913;28;20192;-50
2021/12/12 02:24:23;;;;;;;8.43;4.70;;;20.10;55.90;;;;;;5051793;28;20195;-52
2021/12/12 02:35:37;;;;;;;7.03;4.45;;;20.20;56.10;;;;;;4970744;28;20240;-57
2021/12/12 02:38:09;;;;;;;7.07;4.70;;;20.20;55.90;;;;;;4970123;28;20297;-49
2021/12/12 02:40:44;;;;;;;5.60;4.45;;;20.20;55.80;;;;;;4970229;28;20265;-56
2021/12/12 02:43:18;;;;;;;7.40;4.60;;;20.20;55.80;;;;;;4969945;28;20688;-47
2021/12/12 02:45:51;;;;;;;6.22;4.38;;;20.20;55.80;;;;;;4970232;28;20301;-49
2021/12/12 02:48:24;;;;;;;4.95;4.10;;;20.20;55.80;;;;;;4969995;28;20218;-45
2021/12/12 02:50:55;;;;;;;7.97;4.38;;;20.20;55.80;;;;;;4969859;28;20277;-50
2021/12/12 02:53:29;;;;;;;5.90;3.63;;;20.20;55.80;;;;;;4969858;28;20277;-50
2021/12/12 02:56:04;;;;;;;6.28;4.35;;;20.30;55.80;;;;;;4970460;28;20226;-50
2021/12/12 02:58:35;;;;;;;5.25;3.90;;;20.30;55.50;;;;;;4970294;28;20296;-45
2021/12/12 03:01:12;;;;;;;6.57;4.10;;;20.30;55.60;;;;;;4969422;28;20305;-59
2021/12/12 03:03:45;;;;;;;5.53;3.72;;;20.30;55.50;;;;;;4970034;28;20289;-56
2021/12/12 03:06:21;;;;;;;4.80;3.67;;;20.30;55.50;;;;;;4969585;28;20206;-51
2021/12/12 03:08:54;;;;;;;5.75;3.95;;;20.30;55.60;;;;;;4969629;28;20305;-57
2021/12/12 03:11:27;;;;;;;5.53;3.97;;;20.40;55.80;;;;;;4979999;28;20282;-42
2021/12/12 03:13:59;;;;;;;5.30;4.00;;;20.30;55.70;;;;;;5051335;28;20563;-55
2021/12/12 03:16:31;;;;;;;5.35;3.70;;;20.30;55.70;;;;;;5051628;28;20287;-46
2021/12/12 03:19:02;;;;;;;7.18;3.95;;;20.40;55.70;;;;;;5051378;28;20299;-58
2021/12/12 03:21:34;;;;;;;6.38;3.78;;;20.40;55.60;;;;;;5051000;28;20275;-57
2021/12/12 03:24:07;;;;;;;4.35;3.50;;;20.40;55.60;;;;;;4976592;28;20234;-54
2021/12/12 03:26:40;;;;;;;7.68;4.05;;;20.40;55.70;;;;;;4969957;28;20717;-59
2021/12/12 03:29:11;;;;;;;5.63;3.63;;;20.40;55.60;;;;;;4969774;28;20305;-49
2021/12/12 03:31:46;;;;;;;4.95;3.70;;;20.40;55.60;;;;;;4969665;28;20671;-50
2021/12/12 03:34:19;;;;;;;5.75;3.72;;;20.40;55.70;;;;;;4970020;28;20284;-54
2021/12/12 03:36:50;;;;;;;6.68;3.75;;;20.40;55.40;;;;;;4969332;28;20312;-58
2021/12/12 03:39:23;;;;;;;5.82;3.47;;;20.40;55.30;;;;;;4969442;28;20328;-50
2021/12/12 03:41:57;;;;;;;7.85;3.63;;;20.40;55.30;;;;;;4969967;28;20293;-61
2021/12/12 03:44:32;;;;;;;7.25;3.60;;;20.40;55.20;;;;;;4969548;28;20229;-44
2021/12/12 03:47:07;;;;;;;5.75;3.60;;;20.40;55.20;;;;;;4968911;28;20289;-55
2021/12/12 03:49:38;;;;;;;5.88;3.33;;;20.40;55.20;;;;;;4968568;28;20205;-44
2021/12/12 03:52:09;;;;;;;5.85;3.53;;;20.50;55.20;;;;;;4966166;28;20285;-55
2021/12/12 03:54:42;;;;;;;5.68;3.22;;;20.50;55.10;;;;;;4968686;28;20285;-58
2021/12/12 03:57:14;;;;;;;5.18;3.38;;;20.50;55.00;;;;;;4966978;28;20289;-50
2021/12/12 03:59:45;;;;;;;4.88;3.55;;;20.50;55.00;;;;;;4968557;28;20698;-48
2021/12/12 04:02:16;;;;;;;7.20;3.20;;;20.50;55.10;;;;;;4968439;28;20281;-58
2021/12/12 04:04:48;;;;;;;7.38;3.30;;;20.50;55.10;;;;;;4968285;28;20225;-51
2021/12/12 04:07:22;;;;;;;7.68;3.38;;;20.50;55.10;;;;;;4965153;28;20297;-55
2021/12/12 04:09:53;;;;;;;5.65;3.40;;;20.50;55.10;;;;;;4966186;28;20293;-51
2021/12/12 04:12:26;;;;;;;5.60;3.33;;;20.50;55.20;;;;;;4968298;28;20697;-55
2021/12/12 04:14:58;;;;;;;5.38;3.47;;;20.50;55.30;;;;;;4967505;28;20277;-51
2021/12/12 04:17:31;;;;;;;4.95;3.60;;;20.50;55.40;;;;;;4967652;28;20296;-52
2021/12/12 04:20:12;;;;;;;7.30;3.88;;;20.50;55.40;;;;;;4967934;28;20309;-49
2021/12/12 04:22:43;;;;;;;7.53;4.82;;;20.50;55.30;;;;;;4976022;28;20202;-47
2021/12/12 04:25:14;;;;;;;7.47;3.88;;;20.50;55.20;;;;;;4967868;28;20233;-58
2021/12/12 04:27:47;;;;;;;5.88;3.80;;;20.50;55.30;;;;;;4968117;28;20306;-53
2021/12/12 04:30:19;;;;;;;5.28;4.07;;;20.50;55.40;;;;;;4967998;28;20270;-46
2021/12/12 05:27:17;;;;;;;9.63;4.50;;;20.50;55.40;;;;;;5938778;22;20310;-47
2021/12/12 05:29:52;;;;;;;8.27;4.72;;;20.40;55.20;;;;;;5089842;28;20194;-47
2021/12/12 05:32:24;;;;;;;8.23;4.20;;;20.40;55.20;;;;;;5090127;28;20309;-47
2021/12/12 05:34:55;;;;;;;13.35;4.53;;;20.40;55.10;;;;;;5089610;28;20198;-45
2021/12/12 05:37:26;;;;;;;6.68;4.43;;;20.50;55.20;;;;;;5088901;28;20305;-48
2021/12/12 05:40:00;;;;;;;5.90;4.35;;;20.40;55.10;;;;;;5089180;28;20261;-46
2021/12/12 05:42:34;;;;;;;5.70;4.15;;;20.50;55.30;;;;;;5089381;28;20197;-45
2021/12/12 05:45:06;;;;;;;8.07;3.92;;;20.50;55.30;;;;;;5093203;28;20280;-48
2021/12/12 05:47:36;;;;;;;6.07;4.40;;;20.50;55.40;;;;;;5093153;28;20810;-45
2021/12/12 05:50:09;;;;;;;5.88;4.35;;;20.40;55.20;;;;;;5093420;28;20619;-49
2021/12/12 05:52:39;;;;;;;8.77;3.75;;;20.50;55.30;;;;;;5093468;28;20232;-48
2021/12/12 05:55:11;;;;;;;5.40;3.70;;;20.50;55.50;;;;;;5093084;28;20202;-45
2021/12/12 05:57:53;;;;;;;6.43;4.05;;;20.40;55.50;;;;;;5092456;28;20249;-45
2021/12/12 06:00:25;;;;;;;4.60;3.50;;;20.50;55.50;;;;;;5093369;28;20774;-45
2021/12/12 06:02:56;;;;;;;6.82;4.05;;;20.40;55.40;;;;;;5093336;28;20315;-47
2021/12/12 06:05:27;;;;;;;5.35;3.72;;;20.40;55.50;;;;;;5093236;28;20230;-46
2021/12/12 06:08:00;;;;;;;5.18;4.05;;;20.40;55.50;;;;;;5092856;28;20301;-45
2021/12/12 06:10:32;;;;;;;6.07;3.70;;;20.40;55.50;;;;;;5093214;28;20288;-44
2021/12/12 06:13:09;;;;;;;5.88;3.70;;;20.40;55.60;;;;;;5092941;28;20844;-46
2021/12/12 06:15:40;;;;;;;6.22;3.70;;;20.40;55.60;;;;;;5093233;28;20197;-46
2021/12/12 06:18:11;;;;;;;5.90;4.05;;;20.40;55.70;;;;;;5092900;28;20327;-46
2021/12/12 06:20:42;;;;;;;6.53;4.63;;;20.40;55.80;;;;;;5089472;28;20257;-45
2021/12/12 06:23:13;;;;;;;7.32;4.72;;;20.40;55.80;;;;;;5092686;28;20265;-47
2021/12/12 06:25:44;;;;;;;6.78;4.20;;;20.40;56.00;;;;;;5092861;28;20637;-46
2021/12/12 06:28:19;;;;;;;5.93;4.38;;;20.40;56.00;;;;;;5092082;28;20318;-45
2021/12/12 06:30:50;;;;;;;5.75;3.83;;;20.40;55.90;;;;;;5092226;28;20232;-45
2021/12/12 06:33:20;;;;;;;7.35;4.82;;;20.40;55.90;;;;;;5103862;22;20312;-52
2021/12/12 06:35:51;;;;;;;7.10;4.68;;;20.40;55.80;;;;;;5092316;28;20277;-53
2021/12/12 06:38:24;;;;;;;7.43;5.13;;;20.40;55.70;;;;;;5052031;28;20302;-54
2021/12/12 06:40:55;;;;;;;6.80;4.68;;;20.40;55.70;;;;;;5052437;28;20656;-50
2021/12/12 06:43:28;;;;;;;6.80;4.72;;;20.40;55.70;;;;;;5059765;28;20554;-51
2021/12/12 06:46:00;;;;;;;7.80;5.32;;;20.40;55.80;;;;;;5072207;28;20241;-52
2021/12/12 06:48:30;;;;;;;8.25;4.95;;;20.40;55.80;;;;;;5072525;28;20759;-48
2021/12/12 06:51:02;;;;;;;8.18;4.85;;;20.40;55.90;;;;;;5071899;28;20635;-49
2021/12/12 06:53:35;;;;;;;7.68;4.45;;;20.40;56.00;;;;;;5071661;28;20680;-50
2021/12/12 06:56:08;;;;;;;10.13;5.18;;;20.40;56.10;;;;;;5070799;28;20238;-50
2021/12/12 06:58:41;;;;;;;7.65;4.72;;;20.40;56.10;;;;;;5071079;28;20697;-48
2021/12/12 07:01:15;;;;;;;8.05;4.30;;;20.40;56.20;;;;;;5071774;28;20310;-50
2021/12/12 07:03:46;;;;;;;7.28;4.50;;;20.50;56.40;;;;;;5072241;28;20194;-52
2021/12/12 07:06:21;;;;;;;9.50;4.88;;;20.50;56.50;;;;;;5071683;28;20234;-51
2021/12/12 07:08:53;;;;;;;7.78;4.30;;;20.50;56.50;;;;;;5071808;28;20301;-49
2021/12/12 07:11:25;;;;;;;7.78;4.63;;;20.50;56.50;;;;;;5071255;28;20656;-50
2021/12/12 07:13:58;;;;;;;8.88;4.53;;;20.50;56.50;;;;;;5070834;28;20290;-51
2021/12/12 07:16:29;;;;;;;6.30;4.35;;;20.50;56.50;;;;;;5071517;28;20206;-51
2021/12/12 07:19:00;;;;;;;8.95;4.35;;;20.50;56.50;;;;;;5071736;28;20298;-49
2021/12/12 07:21:32;;;;;;;7.03;4.53;;;20.50;56.50;;;;;;5071178;28;20325;-52
2021/12/12 07:24:04;;;;;;;6.40;4.10;;;20.50;56.40;;;;;;5062714;28;20192;-54
2021/12/12 07:26:34;;;;;;;7.25;4.63;;;20.50;56.30;;;;;;5051379;28;20282;-50
2021/12/12 07:29:08;;;;;;;6.85;4.20;;;20.50;56.30;;;;;;5062074;28;20306;-50
2021/12/12 07:31:40;;;;;;;5.55;4.10;;;20.50;56.30;;;;;;5071476;28;20295;-47
2021/12/12 07:34:15;;;;;;;7.25;4.03;;;20.50;56.50;;;;;;5029637;22;20628;-52
2021/12/12 07:36:48;;;;;;;5.60;3.88;;;20.50;56.40;;;;;;4989092;28;20207;-52
2021/12/12 07:39:22;;;;;;;7.85;4.45;;;20.50;56.40;;;;;;4969525;28;20742;-53
2021/12/12 07:41:54;;;;;;;6.38;4.00;;;20.50;56.50;;;;;;4961226;28;20639;-51
2021/12/12 07:44:31;;;;;;;7.45;4.20;;;20.50;56.60;;;;;;4963591;28;20297;-49
2021/12/12 07:47:01;;;;;;;5.57;4.05;;;20.50;56.50;;;;;;4966418;28;20194;-54
2021/12/12 07:49:35;;;;;;;6.00;3.72;;;20.50;56.40;;;;;;4964144;28;20256;-49
2021/12/12 07:52:08;;;;;;;6.82;3.85;;;20.50;56.60;;;;;;4961211;28;20194;-54
2021/12/12 07:54:39;;;;;;;5.82;4.03;;;20.50;56.80;;;;;;4964560;28;20217;-49
2021/12/12 07:57:10;;;;;;;5.82;3.80;;;20.50;56.90;;;;;;4964420;28;20604;-51
2021/12/12 07:59:42;;;;;;;6.82;3.90;;;20.50;56.90;;;;;;4966478;28;20206;-52
2021/12/12 08:02:16;;;;;;;6.65;3.67;;;20.50;56.90;;;;;;4967337;28;20763;-56
2021/12/12 08:04:47;;;;;;;5.75;3.67;;;20.50;56.90;;;;;;4966281;28;20292;-52
2021/12/12 08:07:20;;;;;;;6.72;3.95;;;20.50;57.00;;;;;;4964603;28;20310;-52
2021/12/12 08:09:51;;;;;;;4.78;3.60;;;20.40;57.00;;;;;;4966100;28;20226;-50
2021/12/12 08:12:26;;;;;;;5.30;3.50;;;20.40;56.90;;;;;;4966207;28;20233;-49
2021/12/12 08:14:59;;;;;;;6.18;3.60;;;20.40;56.80;;;;;;4959664;28;20213;-51
2021/12/12 08:17:30;;;;;;;4.78;3.30;;;20.40;56.70;;;;;;4963402;28;20309;-50
2021/12/12 08:20:01;;;;;;;5.65;3.25;;;20.40;56.70;;;;;;4965705;28;20279;-55
2021/12/12 08:22:32;;;;;;;5.70;3.47;;;20.40;56.70;;;;;;4954737;28;20299;-55
2021/12/12 08:25:04;;;;;;;6.10;3.70;;;20.40;56.70;;;;;;4958537;28;20230;-53
2021/12/12 08:27:35;;;;;;;4.82;3.38;;;20.40;56.90;;;;;;4963603;28;20241;-53
2021/12/12 08:30:09;;;;;;;5.70;3.38;;;20.40;56.80;;;;;;4963275;28;20226;-52
2021/12/12 08:32:40;;;;;;;4.80;3.28;;;20.40;56.90;;;;;;4960179;28;20423;-50
2021/12/12 08:35:12;;;;;;;4.53;3.25;;;20.40;56.70;;;;;;4955189;28;20735;-53
2021/12/12 08:37:43;;;;;;;5.13;3.35;;;20.30;57.30;;;;;;4962960;28;20767;-51
2021/12/12 08:40:18;;;;;;;4.82;3.30;;;20.40;56.80;;;;;;4964292;28;20252;-56
2021/12/12 08:42:49;;;;;;;4.85;3.53;;;20.30;56.80;;;;;;4960875;28;20299;-52
2021/12/12 08:45:24;;;;;;;4.82;3.38;;;20.30;56.70;;;;;;4965177;28;20230;-56
2021/12/12 08:47:55;;;;;;;7.32;3.60;;;20.30;56.80;;;;;;4965709;28;20296;-54
2021/12/12 08:50:28;;;;;;;4.38;3.10;;;20.30;56.90;;;;;;4965054;28;20287;-55
2021/12/12 08:52:59;;;;;;;4.95;2.95;;;20.30;57.40;;;;;;4955218;28;20291;-50
2021/12/12 08:55:36;;;;;;;5.35;3.20;;;20.30;56.80;;;;;;4965486;28;20202;-53
2021/12/12 08:58:16;;;;;;;4.05;2.80;;;20.30;56.90;;;;;;4963952;28;20218;-50
2021/12/12 09:00:52;;;;;;;4.43;3.00;;;20.30;56.80;;;;;;4963536;28;20578;-54
2021/12/12 09:03:26;;;;;;;3.83;3.05;;;20.30;56.90;;;;;;4969721;28;20238;-48
2021/12/12 09:05:57;;;;;;;4.63;3.38;;;20.30;56.90;;;;;;4963757;28;20237;-50
2021/12/12 09:08:45;;;;;;;4.07;2.90;;;20.30;56.90;;;;;;4965346;28;20226;-51
2021/12/12 09:11:23;;;;;;;3.65;2.78;;;20.20;56.90;;;;;;4963961;28;20205;-57
2021/12/12 09:13:59;;;;;;;4.88;3.10;;;20.30;57.10;;;;;;4963889;28;20243;-53
2021/12/12 09:16:37;;;;;;;5.38;3.28;;;20.30;57.10;;;;;;4964404;28;20324;-55
2021/12/12 09:19:11;;;;;;;5.90;3.25;;;20.20;57.10;;;;;;4957466;28;20214;-52
2021/12/12 09:21:51;;;;;;;5.60;3.70;;;20.20;57.10;;;;;;4960095;28;21057;-51
2021/12/12 09:24:43;;;;;;;5.63;3.53;;;20.20;57.10;;;;;;4964422;28;20249;-52
2021/12/12 09:27:17;;;;;;;6.25;3.65;;;20.20;57.00;;;;;;4965460;28;20696;-51
2021/12/12 09:29:57;;;;;;;7.25;4.05;;;20.20;57.00;;;;;;4966313;28;20292;-53
2021/12/12 09:32:36;;;;;;;5.47;3.70;;;20.20;57.10;;;;;;4966829;28;20233;-62
2021/12/12 09:35:11;;;;;;;6.07;4.00;;;20.20;57.10;;;;;;4965287;28;20226;-51
2021/12/12 09:37:45;;;;;;;8.32;4.93;;;20.10;57.00;;;;;;4964685;28;20324;-54
2021/12/12 09:40:30;;;;;;;8.02;5.28;;;20.20;57.10;;;;;;4964244;28;20205;-51
2021/12/12 09:43:13;;;;;;;8.20;5.32;;;20.10;57.00;;;;;;4967105;28;20621;-55
2021/12/12 09:45:56;;;;;;;8.25;4.93;;;20.10;57.10;;;;;;4954921;28;20203;-51
2021/12/12 09:52:21;;;;;;;6.90;4.60;;;20.10;57.10;;;;;;4966214;28;20584;-51
2021/12/12 09:54:56;;;;;;;7.43;4.55;;;20.10;57.10;;;;;;5005221;28;20200;-55
2021/12/12 09:57:33;;;;;;;6.63;4.32;;;20.10;57.10;;;;;;4969900;28;20304;-55
2021/12/12 10:00:12;;;;;;;7.47;4.68;;;20.10;57.20;;;;;;4968632;28;20736;-57
2021/12/12 10:03:02;;;;;;;7.03;4.32;;;20.00;57.20;;;;;;4966201;28;20317;-51
2021/12/12 10:05:54;;;;;;;6.85;5.05;;;20.00;57.30;;;;;;4966158;28;20202;-56
2021/12/12 10:08:46;;;;;;;6.90;4.65;;;20.00;57.30;;;;;;4965820;28;20218;-53
2021/12/12 10:11:25;;;;;;;7.13;4.75;;;20.00;57.30;;;;;;4966319;28;20407;-53
2021/12/12 10:14:15;;;;;;;7.93;4.85;;;20.00;57.30;;;;;;4968753;28;20282;-55
2021/12/12 10:16:52;;;;;;;6.70;4.70;;;20.00;57.30;;;;;;5009964;28;20284;-56
2021/12/12 10:19:32;;;;;;;6.72;4.40;;;20.00;57.30;;;;;;4986086;28;20725;-56
2021/12/12 10:22:22;;;;;;;8.60;4.90;;;20.00;57.30;;;;;;4963877;28;20317;-56
2021/12/12 10:25:00;;;;;;;6.75;4.70;;;19.90;57.20;;;;;;4961948;28;20289;-55
2021/12/12 10:27:39;;;;;;;5.80;4.43;;;20.00;57.30;;;;;;4978297;28;20224;-56
2021/12/12 10:30:14;;;;;;;6.40;4.40;;;19.90;57.30;;;;;;4998801;28;20777;-57
2021/12/12 10:32:56;;;;;;;6.95;3.88;;;20.00;57.40;;;;;;4968405;28;20197;-57
2021/12/12 10:35:30;;;;;;;6.45;4.30;;;19.90;57.30;;;;;;4967955;28;20709;-56
2021/12/12 10:38:07;;;;;;;6.00;4.13;;;19.90;57.40;;;;;;4966841;28;20305;-52
2021/12/12 10:40:41;;;;;;;6.53;4.13;;;19.90;57.40;;;;;;4969687;28;20636;-55
2021/12/12 10:43:22;;;;;;;5.82;4.00;;;19.90;57.40;;;;;;4987230;28;20308;-54
2021/12/12 10:46:00;;;;;;;5.82;3.75;;;19.90;57.40;;;;;;4966779;28;20238;-56
2021/12/12 10:48:41;;;;;;;7.15;4.68;;;19.90;57.40;;;;;;4982248;28;20228;-58
2021/12/12 10:51:17;;;;;;;6.60;4.30;;;19.90;57.50;;;;;;4977179;28;20880;-54
2021/12/12 10:54:02;;;;;;;5.05;3.78;;;19.90;57.50;;;;;;4989801;28;20899;-54
2021/12/12 10:56:40;;;;;;;4.78;3.75;;;19.90;57.50;;;;;;4968013;28;20202;-56
2021/12/12 10:59:23;;;;;;;5.60;4.18;;;19.90;57.50;;;;;;4966938;28;20222;-57
2021/12/12 11:01:59;;;;;;;5.75;4.03;;;19.90;57.50;;;;;;4962965;28;20321;-52
2021/12/12 11:04:40;;;;;;;6.45;4.10;;;19.80;57.50;;;;;;4960234;28;20280;-56
2021/12/12 11:07:14;;;;;;;5.78;4.00;;;19.80;57.50;;;;;;4965228;28;20651;-57
2021/12/12 11:09:53;;;;;;;6.13;4.15;;;19.80;57.50;;;;;;4966555;28;20221;-58
2021/12/12 11:12:32;;;;;;;5.50;3.85;;;19.80;57.50;;;;;;4976043;28;20206;-53
2021/12/12 11:15:10;;;;;;;5.70;4.00;;;19.80;58.10;;;;;;4977590;28;20290;-52
2021/12/12 11:17:44;;;;;;;4.38;3.65;;;19.80;57.50;;;;;;4964909;28;20769;-51
2021/12/12 11:20:20;;;;;;;4.97;3.80;;;19.80;57.50;;;;;;4993694;28;20274;-53
2021/12/12 11:22:53;;;;;;;5.03;3.58;;;19.80;57.50;;;;;;4959489;28;20225;-52
2021/12/12 11:25:31;;;;;;;5.90;3.53;;;19.80;57.50;;;;;;4968984;28;20233;-52
2021/12/12 11:28:03;;;;;;;4.97;3.67;;;19.80;57.60;;;;;;4982792;28;20318;-55
2021/12/12 11:30:36;;;;;;;3.67;3.10;;;19.80;57.60;;;;;;4993839;28;20281;-54
2021/12/12 11:33:09;;;;;;;5.03;3.45;;;19.80;57.60;;;;;;4959365;28;20207;-53
2021/12/12 11:35:41;;;;;;;5.68;3.67;;;19.70;57.60;;;;;;4962056;28;20293;-52
2021/12/12 11:38:19;;;;;;;5.10;3.63;;;19.80;57.70;;;;;;4962259;28;20290;-53
2021/12/12 11:41:00;;;;;;;4.85;3.30;;;19.80;57.80;;;;;;4988884;28;20228;-54
2021/12/12 11:43:37;;;;;;;5.70;3.90;;;19.70;57.70;;;;;;4958573;28;20285;-53
2021/12/12 11:46:12;;;;;;;5.03;3.60;;;19.70;57.70;;;;;;4977294;28;20284;-51
2021/12/12 11:48:54;;;;;;;4.82;3.60;;;19.70;57.70;;;;;;4977708;28;20222;-52
2021/12/12 11:51:33;;;;;;;5.30;3.45;;;19.70;57.70;;;;;;4972178;28;20207;-52
2021/12/12 11:54:12;;;;;;;4.13;2.88;;;19.70;57.70;;;;;;4968009;28;20305;-54
2021/12/12 11:56:48;;;;;;;4.38;3.28;;;19.70;57.70;;;;;;4979099;28;20280;-55
2021/12/12 11:59:25;;;;;;;4.00;3.05;;;19.70;57.70;;;;;;4968881;28;20236;-55
2021/12/12 12:02:06;;;;;;;4.45;3.33;;;19.70;57.70;;;;;;4967769;28;20214;-54
2021/12/12 12:05:01;;;;;;;4.78;3.33;;;19.70;58.30;;;;;;4976015;28;20215;-53
2021/12/12 12:07:48;;;;;;;4.60;3.58;;;19.70;57.70;;;;;;4969749;28;20222;-53
2021/12/12 12:10:28;;;;;;;3.75;2.92;;;19.70;57.70;;;;;;4950876;28;20203;-52
2021/12/12 12:13:19;;;;;;;4.65;2.95;;;19.70;57.70;;;;;;4976949;28;20201;-56
2021/12/12 12:15:55;;;;;;;4.15;3.30;;;19.60;57.70;;;;;;4974456;28;20321;-53
2021/12/12 12:18:43;;;;;;;5.07;3.72;;;19.70;57.80;;;;;;4964717;28;20300;-55
2021/12/12 12:21:20;;;;;;;5.28;3.42;;;19.70;57.90;;;;;;4968107;28;20232;-56
2021/12/12 12:27:02;;;;;;;5.13;3.40;;;19.60;57.90;;;;;;4977830;28;20208;-53
2021/12/12 12:30:07;;;;;;;5.93;3.15;;;19.60;57.90;;;;;;4976830;28;20201;-54
2021/12/12 12:33:13;;;;;;;4.15;3.03;;;19.60;57.90;;;;;;4987882;28;20664;-50
2021/12/12 12:36:17;;;;;;;3.50;3.15;;;19.60;57.90;;;;;;4973893;28;20730;-50
2021/12/12 12:39:22;;;;;;;4.85;3.20;;;19.60;57.90;;;;;;4955860;28;20252;-55
2021/12/12 12:42:28;;;;;;;4.13;3.05;;;19.60;57.80;;;;;;4955720;28;20300;-54
2021/12/12 12:45:34;;;;;;;3.80;3.25;;;19.60;57.80;;;;;;4957378;28;20284;-56
2021/12/12 12:48:39;;;;;;;4.57;2.97;;;19.60;57.90;;;;;;4963152;28;20218;-53
2021/12/12 12:51:26;;;;;;;4.68;3.10;;;19.50;57.80;;;;;;4967139;28;20224;-57
2021/12/12 12:54:21;;;;;;;3.45;2.63;;;19.50;57.80;;;;;;4954579;28;20277;-55
2021/12/12 12:57:21;;;;;;;4.03;2.90;;;19.50;57.90;;;;;;4957585;28;20289;-56
2021/12/12 13:00:08;;;;;;;4.20;2.80;;;19.50;57.90;;;;;;4963123;28;20213;-55
2021/12/12 13:03:19;;;;;;;4.13;2.70;;;19.50;57.90;;;;;;4962869;28;20324;-56
2021/12/12 13:06:16;;;;;;;3.13;2.47;;;19.50;58.00;;;;;;4958456;28;20202;-56
2021/12/12 13:09:18;;;;;;;4.43;2.78;;;19.50;58.00;;;;;;4923852;28;20306;-54
2021/12/12 13:12:20;;;;;;;3.67;2.60;;;19.50;58.00;;;;;;4966155;28;20208;-55
2021/12/12 13:14:59;;;;;;;4.07;2.90;;;19.50;58.10;;;;;;4981512;28;20665;-53
2021/12/12 13:17:46;;;;;;;3.78;2.70;;;19.50;58.10;;;;;;4965865;28;20740;-56
2021/12/12 13:20:32;;;;;;;3.55;2.63;;;19.50;58.10;;;;;;4967032;28;20237;-57
2021/12/12 13:23:16;;;;;;;3.22;2.47;;;19.40;58.00;;;;;;4969870;28;20698;-54
2021/12/12 13:25:54;;;;;;;3.55;2.45;;;19.40;58.00;;;;;;4965034;28;20199;-51
2021/12/12 13:28:34;;;;;;;3.63;2.70;;;19.50;58.10;;;;;;4960026;28;20219;-54
2021/12/12 13:31:13;;;;;;;4.13;2.80;;;19.40;58.00;;;;;;4965307;28;20292;-52
2021/12/12 13:33:49;;;;;;;3.42;2.40;;;19.50;58.10;;;;;;4965410;28;20205;-51
2021/12/12 13:36:44;;;;;;;2.95;2.53;;;19.40;58.00;;;;;;4963565;28;20289;-56
2021/12/12 13:39:26;;;;;;;3.35;2.47;;;19.40;58.00;;;;;;4955431;28;21146;-51
2021/12/12 13:42:15;;;;;;;3.25;2.55;;;19.40;58.00;;;;;;4950649;28;20282;-49
2021/12/12 13:45:14;;;;;;;4.40;2.53;;;19.40;58.00;;;;;;4982049;28;20312;-49
2021/12/12 13:48:05;;;;;;;3.55;2.58;;;19.40;58.00;;;;;;4964299;28;20222;-50
2021/12/12 13:50:41;;;;;;;3.05;2.33;;;19.40;58.00;;;;;;4966126;28;20282;-50
2021/12/12 13:53:22;;;;;;;3.97;2.97;;;19.40;58.00;;;;;;4972123;28;20204;-51
2021/12/12 13:56:02;;;;;;;3.60;2.20;;;19.40;58.00;;;;;;4965697;28;20290;-50
2021/12/12 13:58:39;;;;;;;2.85;2.45;;;19.40;58.10;;;;;;4950085;28;20306;-54
2021/12/12 14:01:17;;;;;;;2.83;2.50;;;19.40;58.10;;;;;;4952672;28;20221;-47
2021/12/12 14:03:54;;;;;;;2.55;2.00;;;19.30;58.10;;;;;;4967033;28;20309;-49
2021/12/12 14:06:27;;;;;;;3.65;2.25;;;19.40;58.20;;;;;;4969203;28;20709;-54
2021/12/12 14:09:03;;;;;;;3.42;2.38;;;19.30;58.10;;;;;;4954395;28;20260;-49
2021/12/12 14:11:36;;;;;;;3.15;2.38;;;19.30;58.10;;;;;;4955406;28;20237;-51
2021/12/12 14:14:12;;;;;;;2.97;2.15;;;19.30;58.10;;;;;;4961049;28;20217;-50
2021/12/12 14:16:48;;;;;;;3.25;2.25;;;19.30;58.00;;;;;;4960774;28;20236;-55
2021/12/12 14:19:25;;;;;;;2.97;2.10;;;19.30;58.00;;;;;;4968649;28;20282;-52
2021/12/12 14:21:55;;;;;;;2.45;2.10;;;19.30;58.10;;;;;;4988625;28;20616;-52
2021/12/12 14:24:28;;;;;;;2.80;2.30;;;19.30;58.10;;;;;;4968761;28;20704;-51
2021/12/12 14:27:01;;;;;;;3.42;2.20;;;19.30;58.10;;;;;;4965954;28;20615;-50
2021/12/12 14:29:34;;;;;;;3.58;2.22;;;19.30;58.00;;;;;;4958693;28;20203;-53
2021/12/12 14:32:09;;;;;;;3.25;2.53;;;19.30;58.00;;;;;;4968407;28;20202;-53
2021/12/12 14:34:43;;;;;;;2.45;2.13;;;19.30;58.00;;;;;;4967617;28;20288;-51
2021/12/12 14:37:19;;;;;;;3.28;2.40;;;19.30;58.10;;;;;;4972603;28;20310;-48
2021/12/12 14:39:50;;;;;;;2.65;2.00;;;19.30;58.10;;;;;;4959863;28;20204;-50
2021/12/12 14:42:26;;;;;;;3.63;2.25;;;19.30;58.10;;;;;;4953603;28;20286;-54
2021/12/12 14:44:58;;;;;;;3.17;2.15;;;19.30;58.20;;;;;;4967131;28;20255;-53